createdAt,value
2022-08-17T00:01:52.124Z,22.02
2022-08-17T00:04:20.347Z,20.92
2022-08-17T00:06:49.171Z,22.90
2022-08-17T00:09:18.478Z,23.77
2022-08-17T00:12:42.248Z,23.23
2022-08-17T00:14:34.897Z,22.77
2022-08-17T00:17:03.842Z,22.48
2022-08-17T00:19:32.546Z,23.48
2022-08-17T00:22:31.601Z,21.25
2022-08-17T00:24:50.116Z,28.27
2022-08-17T00:27:17.306Z,23.05
2022-08-17T00:29:45.717Z,22.48
2022-08-17T00:33:11.926Z,23.90
2022-08-17T00:35:00.477Z,21.92
2022-08-17T00:37:27.623Z,24.55
2022-08-17T00:39:54.599Z,22.45
2022-08-17T00:42:21.492Z,27.85
2022-08-17T00:44:48.430Z,24.58
2022-08-17T00:47:15.219Z,21.08
2022-08-17T00:49:42.044Z,26.10
2022-08-17T00:52:16.619Z,22.33
2022-08-17T00:54:46.974Z,24.20
2022-08-17T00:57:23.391Z,21.98
2022-08-17T01:00:06.325Z,23.23
2022-08-17T01:02:42.497Z,28.38
2022-08-17T01:05:18.425Z,23.63
2022-08-17T01:07:47.806Z,23.80
2022-08-17T01:10:58.157Z,27.58
2022-08-17T01:13:04.189Z,29.95
2022-08-17T01:15:33.724Z,25.23
2022-08-17T01:18:00.617Z,24.35
2022-08-17T01:20:27.672Z,33.72
2022-08-17T01:22:54.520Z,25.45
2022-08-17T01:25:22.152Z,24.98
2022-08-17T01:27:49.747Z,22.63
2022-08-17T01:30:56.922Z,27.05
2022-08-17T01:33:04.657Z,22.92
2022-08-17T01:35:31.671Z,23.85
2022-08-17T01:37:58.496Z,24.92
2022-08-17T01:40:43.247Z,24.17
2022-08-17T01:43:21.539Z,20.90
2022-08-17T01:46:03.508Z,23.38
2022-08-17T01:48:34.217Z,25.27
2022-08-17T01:51:01.424Z,26.48
2022-08-17T01:53:37.450Z,25.95
2022-08-17T01:56:10.761Z,25.10
2022-08-17T01:58:39.849Z,27.80
2022-08-17T02:01:08.226Z,23.23
2022-08-17T02:03:36.451Z,24.48
2022-08-17T02:06:05.430Z,30.33
2022-08-17T02:08:38.690Z,24.00
2022-08-17T02:11:11.813Z,24.35
2022-08-17T02:13:39.310Z,36.50
2022-08-17T02:16:06.760Z,30.63
2022-08-17T02:18:33.988Z,30.17
2022-08-17T02:21:00.802Z,29.50
2022-08-17T02:23:30.244Z,33.53
2022-08-17T02:25:59.730Z,29.20
2022-08-17T02:28:28.389Z,30.00
2022-08-17T02:31:01.518Z,29.70
2022-08-17T02:33:42.041Z,26.50
2022-08-17T02:36:12.118Z,23.60
2022-08-17T02:38:39.861Z,25.85
2022-08-17T02:41:07.032Z,24.30
2022-08-17T02:43:34.910Z,25.45
2022-08-17T02:46:01.937Z,25.42
2022-08-17T02:48:31.611Z,28.67
2022-08-17T02:50:59.938Z,27.65
2022-08-17T02:53:27.633Z,27.48
2022-08-17T02:56:02.590Z,29.27
2022-08-17T02:58:34.314Z,33.90
2022-08-17T03:01:05.093Z,32.70
2022-08-17T03:03:31.944Z,32.10
2022-08-17T03:05:58.792Z,30.00
2022-08-17T03:08:25.685Z,27.63
2022-08-17T03:10:52.697Z,27.15
2022-08-17T03:13:20.021Z,30.20
2022-08-17T03:15:48.405Z,35.85
2022-08-17T03:18:19.078Z,34.30
2022-08-17T03:20:56.140Z,36.30
2022-08-17T03:23:25.478Z,37.42
2022-08-17T03:25:54.120Z,36.67
2022-08-17T03:28:22.456Z,39.53
2022-08-17T03:30:51.013Z,39.63
2022-08-17T03:33:18.586Z,37.30
2022-08-17T03:35:45.680Z,36.83
2022-08-17T03:38:15.357Z,31.27
2022-08-17T03:40:58.058Z,35.75
2022-08-17T03:43:29.447Z,35.00
2022-08-17T03:46:28.485Z,32.13
2022-08-17T03:49:24.673Z,34.45
2022-08-17T03:52:10.614Z,38.45
2022-08-17T03:57:23.185Z,30.05
2022-08-17T03:59:50.668Z,27.48
2022-08-17T04:02:34.439Z,45.33
2022-08-17T04:05:01.597Z,32.35
2022-08-17T04:07:30.466Z,46.15
2022-08-17T04:09:58.213Z,53.38
2022-08-17T04:12:26.422Z,38.58
2022-08-17T04:14:55.036Z,55.45
2022-08-17T04:17:25.133Z,52.67
2022-08-17T04:19:52.526Z,51.72
2022-08-17T04:22:30.601Z,48.75
2022-08-17T04:25:08.562Z,57.63
2022-08-17T04:27:36.096Z,60.92
2022-08-17T04:30:03.767Z,59.75
2022-08-17T04:33:04.099Z,56.38
2022-08-17T04:35:20.197Z,52.42
2022-08-17T04:37:47.471Z,46.55
2022-08-17T04:40:32.741Z,41.65
2022-08-17T04:43:07.729Z,31.73
2022-08-17T04:45:54.995Z,32.20
2022-08-17T04:48:29.686Z,32.15
2022-08-17T04:51:07.438Z,29.95
2022-08-17T04:53:34.330Z,33.95
2022-08-17T04:56:01.313Z,36.28
2022-08-17T04:58:28.183Z,37.05
2022-08-17T05:00:55.039Z,38.70
2022-08-17T05:03:21.871Z,36.80
2022-08-17T05:05:49.831Z,41.00
2022-08-17T05:08:19.479Z,42.08
2022-08-17T05:10:47.234Z,48.05
2022-08-17T05:13:26.242Z,52.92
2022-08-17T05:15:56.349Z,56.33
2022-08-17T05:18:24.532Z,51.65
2022-08-17T05:20:52.636Z,60.30
2022-08-17T05:23:22.144Z,57.58
2022-08-17T05:25:51.419Z,50.33
2022-08-17T05:28:23.535Z,56.55
2022-08-17T05:30:54.937Z,50.55
2022-08-17T05:33:26.349Z,58.22
2022-08-17T05:35:55.316Z,58.65
2022-08-17T05:38:24.464Z,54.10
2022-08-17T05:40:51.747Z,52.00
2022-08-17T05:43:30.904Z,54.90
2022-08-17T05:46:03.517Z,49.38
2022-08-17T05:48:43.275Z,56.88
2022-08-17T05:51:37.791Z,53.47
2022-08-17T05:54:22.869Z,50.47
2022-08-17T05:57:16.199Z,54.50
2022-08-17T06:00:04.612Z,59.55
2022-08-17T06:02:57.173Z,52.72
2022-08-17T06:05:23.984Z,62.75
2022-08-17T06:08:23.063Z,57.05
2022-08-17T06:11:28.191Z,55.88
2022-08-17T06:14:22.230Z,65.53
2022-08-17T06:16:54.635Z,56.58
2022-08-17T06:19:40.606Z,60.40
2022-08-17T06:22:10.090Z,52.75
2022-08-17T06:25:05.296Z,56.75
2022-08-17T06:27:46.187Z,55.00
2022-08-17T06:30:25.767Z,50.95
2022-08-17T06:32:55.893Z,56.38
2022-08-17T06:35:37.911Z,49.38
2022-08-17T06:38:34.995Z,49.67
2022-08-17T06:41:37.800Z,48.05
2022-08-17T06:44:57.311Z,47.50
2022-08-17T06:47:49.373Z,44.25
2022-08-17T06:50:27.945Z,43.30
2022-08-17T06:53:19.745Z,39.53
2022-08-17T06:55:52.410Z,43.60
2022-08-17T06:58:23.652Z,40.97
2022-08-17T07:01:00.968Z,44.80
2022-08-17T07:03:54.733Z,37.60
2022-08-17T07:06:25.106Z,34.38
2022-08-17T07:09:23.196Z,38.05
2022-08-17T07:11:54.400Z,39.42
2022-08-17T07:14:57.908Z,36.08
2022-08-17T07:17:36.938Z,39.38
2022-08-17T07:20:20.476Z,33.72
2022-08-17T07:23:06.683Z,32.72
2022-08-17T07:25:33.530Z,33.10
2022-08-17T07:28:05.296Z,32.80
2022-08-17T07:30:45.853Z,36.78
2022-08-17T07:33:28.103Z,29.85
2022-08-17T07:35:58.115Z,29.05
2022-08-17T07:38:30.506Z,32.47
2022-08-17T07:41:00.208Z,28.02
2022-08-17T07:43:40.251Z,31.52
2022-08-17T07:46:37.495Z,34.10
2022-08-17T07:49:04.989Z,29.98
2022-08-17T07:51:42.690Z,27.08
2022-08-17T07:54:15.693Z,24.38
2022-08-17T07:56:47.112Z,25.98
2022-08-17T07:59:24.012Z,22.25
2022-08-17T08:01:58.064Z,22.95
2022-08-17T08:04:58.879Z,21.63
2022-08-17T08:07:48.962Z,22.17
2022-08-17T08:10:27.949Z,16.98
2022-08-17T08:13:20.962Z,23.02
2022-08-17T08:15:54.232Z,17.58
2022-08-17T08:18:53.773Z,20.10
2022-08-17T08:21:29.152Z,30.77
2022-08-17T08:24:34.710Z,21.02
2022-08-17T08:27:27.666Z,15.20
2022-08-17T08:30:08.761Z,19.65
2022-08-17T08:32:38.518Z,17.85
2022-08-17T08:35:07.690Z,17.48
2022-08-17T08:37:47.934Z,16.75
2022-08-17T08:40:51.761Z,18.85
2022-08-17T08:43:26.561Z,14.65
2022-08-17T08:45:56.677Z,21.08
2022-08-17T08:48:53.639Z,16.98
2022-08-17T08:51:57.329Z,15.93
2022-08-17T08:54:58.460Z,15.77
2022-08-17T08:57:36.132Z,14.10
2022-08-17T09:00:06.411Z,15.85
2022-08-17T09:02:42.291Z,14.50
2022-08-17T09:05:16.121Z,15.05
2022-08-17T09:08:01.475Z,12.40
2022-08-17T09:10:54.043Z,10.00
2022-08-17T09:13:31.220Z,11.93
2022-08-17T09:16:06.684Z,15.45
2022-08-17T09:19:00.418Z,11.05
2022-08-17T09:21:48.533Z,11.50
2022-08-17T09:24:29.041Z,9.80
2022-08-17T09:27:18.346Z,13.50
2022-08-17T09:29:56.377Z,11.88
2022-08-17T09:32:31.189Z,9.85
2022-08-17T09:35:14.748Z,13.48
2022-08-17T09:38:03.912Z,13.65
2022-08-17T09:41:11.091Z,9.40
2022-08-17T09:43:50.644Z,8.30
2022-08-17T09:46:23.931Z,8.75
2022-08-17T09:48:57.562Z,6.05
2022-08-17T09:51:35.867Z,9.10
2022-08-17T09:54:34.969Z,8.70
2022-08-17T09:57:28.008Z,8.77
2022-08-17T09:59:57.332Z,12.10
2022-08-17T10:02:50.886Z,5.55
2022-08-17T10:05:24.036Z,7.32
2022-08-17T10:08:01.984Z,5.85
2022-08-17T10:10:56.618Z,5.95
2022-08-17T10:13:53.084Z,7.35
2022-08-17T10:16:40.765Z,3.67
2022-08-17T10:19:18.542Z,5.65
2022-08-17T10:22:14.513Z,6.80
2022-08-17T10:25:22.642Z,7.72
2022-08-17T10:28:01.364Z,6.20
2022-08-17T10:30:32.358Z,8.52
2022-08-17T10:33:06.747Z,11.88
2022-08-17T10:35:39.759Z,10.40
2022-08-17T10:38:31.536Z,7.47
2022-08-17T10:41:30.986Z,7.70
2022-08-17T10:44:38.932Z,6.70
2022-08-17T10:47:11.715Z,6.07
2022-08-17T10:49:55.913Z,6.22
2022-08-17T10:52:25.039Z,5.15
2022-08-17T10:54:58.398Z,6.53
2022-08-17T10:57:31.951Z,5.47
2022-08-17T11:00:01.466Z,4.40
2022-08-17T11:02:52.874Z,4.65
2022-08-17T11:05:44.115Z,5.88
2022-08-17T11:08:54.186Z,8.73
2022-08-17T11:11:39.875Z,7.82
2022-08-17T11:14:13.886Z,11.52
2022-08-17T11:17:13.057Z,9.95
2022-08-17T11:19:53.772Z,6.57
2022-08-17T11:22:41.275Z,10.27
2022-08-17T11:25:20.463Z,6.25
2022-08-17T11:27:53.821Z,8.60
2022-08-17T11:30:44.432Z,4.97
2022-08-17T11:33:44.652Z,3.95
2022-08-17T11:36:34.340Z,4.65
2022-08-17T11:39:25.021Z,10.13
2022-08-17T11:42:11.864Z,6.93
2022-08-17T11:44:38.720Z,7.97
2022-08-17T11:47:42.703Z,6.00
2022-08-17T11:50:52.076Z,3.05
2022-08-17T11:53:37.241Z,9.00
2022-08-17T11:56:31.726Z,2.70
2022-08-17T11:59:00.667Z,7.55
2022-08-17T12:01:29.283Z,10.20
2022-08-17T12:04:25.154Z,3.72
2022-08-17T12:09:25.093Z,6.25
2022-08-17T12:12:11.787Z,8.98
2022-08-17T12:17:40.767Z,11.38
2022-08-17T12:20:23.041Z,7.32
2022-08-17T12:23:01.102Z,5.05
2022-08-17T12:26:12.814Z,6.13
2022-08-17T12:28:45.747Z,7.28
2022-08-17T12:31:24.633Z,5.95
2022-08-17T12:33:52.181Z,6.13
2022-08-17T12:36:28.233Z,6.40
2022-08-17T12:39:14.024Z,7.32
2022-08-17T12:41:45.257Z,7.43
2022-08-17T12:44:13.733Z,3.95
2022-08-17T12:46:51.916Z,8.27
2022-08-17T12:49:32.888Z,7.68
2022-08-17T12:52:16.904Z,7.43
2022-08-17T12:55:21.316Z,6.28
2022-08-17T12:57:54.182Z,4.28
2022-08-17T13:00:29.003Z,7.72
2022-08-17T13:03:18.001Z,8.95
2022-08-17T13:05:58.865Z,11.98
2022-08-17T13:08:31.817Z,8.60
2022-08-17T13:11:09.761Z,8.88
2022-08-17T13:13:42.062Z,9.10
2022-08-17T13:16:11.820Z,6.20
2022-08-17T13:18:43.762Z,8.05
2022-08-17T13:21:33.238Z,5.82
2022-08-17T13:24:13.696Z,7.03
2022-08-17T13:26:51.530Z,7.97
2022-08-17T13:29:29.381Z,5.05
2022-08-17T13:32:16.500Z,8.00
2022-08-17T13:35:12.537Z,8.40
2022-08-17T13:37:41.026Z,4.72
2022-08-17T13:40:09.589Z,4.82
2022-08-17T13:42:52.854Z,4.53
2022-08-17T13:45:39.152Z,6.63
2022-08-17T13:48:13.888Z,4.30
2022-08-17T13:50:46.064Z,7.38
2022-08-17T13:53:33.867Z,4.45
2022-08-17T13:56:38.204Z,3.33
2022-08-17T13:59:15.729Z,7.18
2022-08-17T14:01:53.543Z,9.60
2022-08-17T14:04:31.739Z,7.35
2022-08-17T14:07:11.545Z,5.05
2022-08-17T14:09:52.466Z,4.85
2022-08-17T14:12:25.088Z,8.32
2022-08-17T14:14:53.346Z,4.90
2022-08-17T14:17:20.245Z,8.48
2022-08-17T14:19:48.053Z,6.57
2022-08-17T14:22:27.551Z,5.55
2022-08-17T14:24:58.327Z,5.60
2022-08-17T14:27:28.073Z,11.60
2022-08-17T14:29:56.398Z,4.65
2022-08-17T14:32:32.611Z,5.25
2022-08-17T14:35:00.094Z,4.55
2022-08-17T14:37:28.735Z,7.03
2022-08-17T14:39:58.649Z,10.77
2022-08-17T14:42:27.715Z,10.25
2022-08-17T14:44:55.894Z,4.20
2022-08-17T14:47:22.773Z,7.43
2022-08-17T14:49:49.611Z,4.53
2022-08-17T14:52:21.515Z,7.25
2022-08-17T14:54:51.242Z,7.97
2022-08-17T14:57:33.673Z,9.48
2022-08-17T15:00:02.166Z,10.52
2022-08-17T15:02:30.664Z,3.42
2022-08-17T15:05:05.698Z,5.72
2022-08-17T15:07:32.783Z,5.43
2022-08-17T15:10:01.339Z,10.80
2022-08-17T15:12:33.354Z,9.57
2022-08-17T15:15:05.546Z,7.82
2022-08-17T15:17:44.756Z,5.20
2022-08-17T15:20:18.979Z,6.20
2022-08-17T15:22:47.050Z,8.38
2022-08-17T15:25:14.586Z,8.90
2022-08-17T15:27:42.004Z,5.13
2022-08-17T15:30:10.187Z,11.15
2022-08-17T15:32:40.850Z,5.18
2022-08-17T15:35:11.794Z,6.10
2022-08-17T15:37:40.184Z,8.70
2022-08-17T15:40:09.080Z,5.28
2022-08-17T15:42:36.575Z,6.90
2022-08-17T15:45:10.882Z,4.50
2022-08-17T15:47:38.269Z,6.80
2022-08-17T15:50:07.534Z,2.90
2022-08-17T15:52:40.058Z,8.35
2022-08-17T15:55:10.731Z,6.88
2022-08-17T15:57:37.612Z,7.55
2022-08-17T16:00:06.215Z,7.25
2022-08-17T16:03:45.966Z,6.65
2022-08-17T16:05:31.200Z,4.22
2022-08-17T16:07:59.729Z,6.78
2022-08-17T16:10:35.162Z,4.38
2022-08-17T16:13:04.072Z,2.80
2022-08-17T16:15:33.682Z,5.15
2022-08-17T16:18:00.565Z,5.07
2022-08-17T16:20:27.716Z,7.97
2022-08-17T16:22:55.217Z,11.93
2022-08-17T16:25:52.144Z,3.15
2022-08-17T16:28:16.919Z,4.07
2022-08-17T16:30:44.282Z,7.22
2022-08-17T16:33:11.846Z,11.32
2022-08-17T16:35:39.608Z,4.10
2022-08-17T16:38:07.258Z,8.68
2022-08-17T16:40:35.756Z,6.32
2022-08-17T16:43:03.975Z,6.55
2022-08-17T16:45:36.563Z,5.80
2022-08-17T16:48:04.441Z,3.97
2022-08-17T16:50:32.538Z,5.22
2022-08-17T16:53:06.730Z,13.80
2022-08-17T16:55:35.759Z,5.80
2022-08-17T16:58:08.782Z,3.70
2022-08-17T17:00:36.684Z,5.65
2022-08-17T17:03:19.074Z,4.10
2022-08-17T17:06:02.801Z,7.47
2022-08-17T17:08:46.795Z,3.90
2022-08-17T17:11:21.487Z,6.10
2022-08-17T17:14:01.621Z,5.15
2022-08-17T17:17:12.966Z,10.20
2022-08-17T17:19:46.835Z,6.07
2022-08-17T17:22:24.445Z,6.53
2022-08-17T17:25:30.254Z,5.80
2022-08-17T17:28:15.906Z,3.80
2022-08-17T17:30:51.402Z,3.65
2022-08-17T17:33:22.511Z,7.70
2022-08-17T17:36:00.047Z,3.97
2022-08-17T17:38:34.299Z,6.95
2022-08-17T17:41:12.033Z,6.63
2022-08-17T17:43:40.879Z,4.60
2022-08-17T17:46:28.214Z,7.93
2022-08-17T17:48:56.762Z,8.57
2022-08-17T17:52:06.719Z,5.03
2022-08-17T17:56:55.469Z,6.88
2022-08-17T17:59:32.844Z,5.97
2022-08-17T18:02:51.652Z,4.95
2022-08-17T18:05:25.231Z,5.28
2022-08-17T18:08:01.501Z,6.10
2022-08-17T18:10:41.550Z,14.23
2022-08-17T18:13:17.695Z,6.82
2022-08-17T18:15:54.016Z,7.18
2022-08-17T18:18:38.088Z,6.03
2022-08-17T18:21:19.304Z,10.55
2022-08-17T18:23:53.811Z,7.70
2022-08-17T18:26:32.795Z,5.88
2022-08-17T18:29:01.368Z,4.03
2022-08-17T18:31:28.142Z,7.32
2022-08-17T18:34:36.092Z,7.85
2022-08-17T18:37:05.869Z,8.20
2022-08-17T18:39:32.890Z,7.53
2022-08-17T18:42:03.019Z,9.70
2022-08-17T18:44:35.735Z,9.27
2022-08-17T18:47:08.386Z,16.95
2022-08-17T18:49:35.703Z,14.43
2022-08-17T18:52:27.766Z,13.32
2022-08-17T18:55:20.936Z,11.93
2022-08-17T18:57:58.809Z,7.60
2022-08-17T19:00:41.393Z,7.25
2022-08-17T19:03:19.963Z,4.93
2022-08-17T19:05:57.287Z,12.27
2022-08-17T19:08:30.016Z,10.82
2022-08-17T19:11:02.463Z,6.20
2022-08-17T19:13:40.947Z,8.25
2022-08-17T19:16:23.837Z,11.55
2022-08-17T19:19:15.066Z,7.20
2022-08-17T19:21:55.463Z,8.68
2022-08-17T19:24:24.642Z,11.63
2022-08-17T19:26:59.171Z,16.75
2022-08-17T19:29:39.546Z,11.18
2022-08-17T19:32:11.147Z,6.43
2022-08-17T19:34:39.337Z,7.95
2022-08-17T19:37:16.154Z,7.55
2022-08-17T19:39:49.011Z,9.20
2022-08-17T19:42:18.796Z,5.95
2022-08-17T19:45:08.049Z,7.97
2022-08-17T19:48:26.264Z,7.05
2022-08-17T19:51:24.434Z,14.68
2022-08-17T19:54:07.274Z,13.75
2022-08-17T19:57:02.012Z,11.40
2022-08-17T19:59:58.534Z,13.60
2022-08-17T20:02:34.247Z,12.77
2022-08-17T20:05:07.122Z,12.23
2022-08-17T20:08:03.804Z,9.90
2022-08-17T20:10:37.127Z,9.27
2022-08-17T20:13:11.301Z,13.23
2022-08-17T20:15:42.079Z,10.80
2022-08-17T20:18:27.515Z,14.95
2022-08-17T20:21:37.071Z,14.52
2022-08-17T20:24:28.278Z,18.17
2022-08-17T20:27:09.798Z,15.80
2022-08-17T20:30:07.951Z,15.75
2022-08-17T20:32:53.061Z,19.13
2022-08-17T20:35:35.420Z,17.50
2022-08-17T20:38:33.354Z,16.83
2022-08-17T20:41:03.847Z,17.38
2022-08-17T20:43:33.756Z,21.60
2022-08-17T20:46:19.605Z,23.48
2022-08-17T20:48:50.673Z,19.90
2022-08-17T20:51:19.401Z,18.77
2022-08-17T20:53:55.233Z,20.65
2022-08-17T20:56:43.675Z,24.70
2022-08-17T20:59:24.044Z,17.25
2022-08-17T21:02:19.363Z,16.60
2022-08-17T21:05:00.816Z,20.10
2022-08-17T21:07:43.458Z,15.88
2022-08-17T21:10:29.640Z,16.67
2022-08-17T21:13:10.117Z,16.73
2022-08-17T21:15:42.736Z,16.13
2022-08-17T21:18:15.496Z,17.08
2022-08-17T21:21:25.969Z,19.73
2022-08-17T21:24:30.432Z,22.02
2022-08-17T21:27:06.062Z,20.50
2022-08-17T21:29:34.196Z,21.13
2022-08-17T21:32:07.542Z,27.80
2022-08-17T21:35:07.499Z,23.30
2022-08-17T21:37:44.871Z,20.33
2022-08-17T21:40:17.941Z,21.60
2022-08-17T21:42:47.340Z,28.67
2022-08-17T21:45:22.607Z,23.15
2022-08-17T21:50:24.467Z,23.52
2022-08-17T21:53:02.317Z,22.63
2022-08-17T21:55:32.445Z,26.50
2022-08-17T21:58:14.780Z,23.50
2022-08-17T22:00:46.009Z,22.13
2022-08-17T22:03:25.889Z,25.77
2022-08-17T22:05:52.688Z,23.50
2022-08-17T22:08:23.960Z,22.73
2022-08-17T22:11:01.137Z,28.35
2022-08-17T22:13:29.786Z,26.13
2022-08-17T22:16:29.518Z,25.20
2022-08-17T22:18:58.851Z,28.58
2022-08-17T22:21:26.360Z,25.17
2022-08-17T22:24:06.489Z,21.35
2022-08-17T22:26:59.112Z,23.02
2022-08-17T22:29:47.852Z,22.80
2022-08-17T22:32:50.373Z,21.65
2022-08-17T22:35:35.050Z,20.70
2022-08-17T22:38:19.805Z,25.20
2022-08-17T22:40:49.821Z,22.45
2022-08-17T22:43:21.299Z,21.73
2022-08-17T22:45:57.405Z,22.15
2022-08-17T22:48:27.940Z,20.80
2022-08-17T22:51:17.511Z,21.65
2022-08-17T22:54:14.950Z,20.45
2022-08-17T22:57:12.594Z,19.98
2022-08-17T22:59:51.438Z,20.98
2022-08-17T23:02:30.725Z,20.30
2022-08-17T23:05:23.931Z,23.35
2022-08-17T23:07:52.630Z,23.30
2022-08-17T23:10:19.649Z,23.30
2022-08-17T23:12:46.672Z,25.75
2022-08-17T23:15:16.520Z,30.98
2022-08-17T23:17:45.319Z,27.70
2022-08-17T23:20:14.939Z,32.35
2022-08-17T23:22:52.372Z,27.38
2022-08-17T23:25:31.447Z,30.52
2022-08-17T23:28:01.667Z,25.60
2022-08-17T23:30:31.156Z,26.65
2022-08-17T23:33:06.236Z,29.58
2022-08-17T23:35:40.563Z,32.05
2022-08-17T23:38:12.932Z,30.65
2022-08-17T23:40:40.733Z,29.52
2022-08-17T23:43:25.767Z,30.42
2022-08-17T23:45:57.505Z,32.22
2022-08-17T23:48:35.479Z,36.83
2022-08-17T23:51:15.340Z,37.40
2022-08-17T23:53:47.310Z,34.53
2022-08-17T23:56:14.727Z,35.28
2022-08-17T23:58:42.814Z,34.95
